Flight Briefing for CPX235

Departure Arrival
Phoenix Sky Harbor International Airport (KPHX)
Click to view FAA NOTAMS
Miami International Airport (KMIA)
Click to view FAA NOTAMS
Departure Time Arrival Time
N/A N/A
Aircraft Distance
B767-300BDSF 1723nm
Departure METAR Arrival METAR
KPHX 221051Z 23004KT 10SM CLR 12/06 A3000 RMK AO2 SLP151 T01170056 KMIA 221053Z 33009G15KT 10SM CLR 15/12 A3005 RMK AO2 SLP176 T01500117
Suggested Route
ECLPS1 PHASE ELP FST J86 LEV Y290 BLVNS Y290 BAGGS SSCOT5


View recent IFR Routes data
Notes



Charts and Procedures

Charts for KPHX
No chart available
Charts for KMIA
No chart available

Windy.com Weather Map